SNOW

Not for real navigation. The accuracy of this data is not assured See disclaimer for more information



ICAO NAME COUNTRY WIND Kt GUST Kt VIS m TEMP/DEW C BARO METAR
UHSS Yuzhno-Sakhalinsk Russia 15 20 200 -11/-12 29.38 UHSS 240430Z 36015G20KT 0200 0150E R01/0250N +SHSN BLSN VV014 M11/M12 Q0995 R01/422050 NOSIG RMK MT
RJNT Toyama Airport Japan 14 24 300 -3/-4 29.80 RJNT 240441Z 26014G24KT 0300 SHSN VV002 M03/M04 Q1009 RMK A2981
RJBT Tajima Japan 8 18 300 -4/-6 29.88 RJBT 240409Z 27008G18KT 210V320 0300 SHSN FEW000 SCT003 BKN006 M04/M06 Q1012 RMK 1ST000 3ST003 5ST00
RJNW 10 0 400 -5/-6 29.71 RJNW 240400Z 29010KT 240V320 0400 R25/0750VP1800N SHSN VV002 M05/M06 Q1006
KSMP STAMPEDE PASS WA United States 4 0 400 -2/-2 29.74 KSMP 240441Z AUTO VRB04KT 0.25SM -SN FZFG VV002 M02/M02 A2974 RMK AO2 P0000 T10171022 FZRANO $

Show more